createdAt,value
2017-06-15T00:00:06.735Z,0
2017-06-15T00:00:32.842Z,0
2017-06-15T00:00:58.945Z,0
2017-06-15T00:01:25.044Z,0
2017-06-15T00:01:51.140Z,0
2017-06-15T00:02:17.231Z,0
2017-06-15T00:02:43.341Z,0
2017-06-15T00:03:09.466Z,0
2017-06-15T00:03:35.558Z,0
2017-06-15T00:04:01.666Z,0
2017-06-15T00:04:27.796Z,0
2017-06-15T00:04:53.887Z,0
2017-06-15T00:05:20.017Z,0
2017-06-15T00:05:46.123Z,0
2017-06-15T00:06:12.209Z,0
2017-06-15T00:06:38.309Z,0
2017-06-15T00:07:04.417Z,0
2017-06-15T00:07:30.508Z,0
2017-06-15T00:07:56.606Z,0
2017-06-15T00:08:22.713Z,0
2017-06-15T00:08:48.805Z,0
2017-06-15T00:09:14.893Z,0
2017-06-15T00:09:41.037Z,0
2017-06-15T00:10:07.126Z,0
2017-06-15T00:10:33.248Z,0
2017-06-15T00:10:59.400Z,0
2017-06-15T00:11:25.527Z,0
2017-06-15T00:11:51.619Z,0
2017-06-15T00:12:17.722Z,0
2017-06-15T00:12:43.866Z,0
2017-06-15T00:13:10.003Z,0
2017-06-15T00:13:36.097Z,0
2017-06-15T00:14:02.189Z,0
2017-06-15T00:14:28.311Z,0
2017-06-15T00:14:54.426Z,0
2017-06-15T00:15:20.543Z,0
2017-06-15T00:15:46.649Z,0
2017-06-15T00:16:12.809Z,0
2017-06-15T00:16:38.898Z,0
2017-06-15T00:17:04.998Z,0
2017-06-15T00:17:31.130Z,0
2017-06-15T00:17:57.219Z,0
2017-06-15T00:18:23.322Z,0
2017-06-15T00:18:49.412Z,0
2017-06-15T00:19:15.537Z,0
2017-06-15T00:19:41.698Z,0
2017-06-15T00:20:07.812Z,0
2017-06-15T00:20:33.913Z,0
2017-06-15T00:21:00.019Z,0
2017-06-15T00:21:26.141Z,0
2017-06-15T00:21:52.262Z,0
2017-06-15T00:22:18.396Z,0
2017-06-15T00:22:44.519Z,0
2017-06-15T00:23:10.655Z,0
2017-06-15T00:23:36.758Z,0
2017-06-15T00:24:02.856Z,0
2017-06-15T00:24:28.962Z,0
2017-06-15T00:24:55.049Z,0
2017-06-15T00:25:21.169Z,0
2017-06-15T00:25:47.277Z,0
2017-06-15T00:26:13.398Z,0
2017-06-15T00:26:39.487Z,0
2017-06-15T00:27:05.596Z,0
2017-06-15T00:27:31.721Z,0
2017-06-15T00:27:57.838Z,0
2017-06-15T00:28:23.966Z,0
2017-06-15T00:28:50.067Z,0
2017-06-15T00:29:16.168Z,0
2017-06-15T00:29:42.262Z,0
2017-06-15T00:30:08.376Z,0
2017-06-15T00:30:34.487Z,0
2017-06-15T00:31:00.584Z,0
2017-06-15T00:31:26.676Z,0
2017-06-15T00:31:52.781Z,0
2017-06-15T00:32:18.910Z,0
2017-06-15T00:32:44.998Z,0
2017-06-15T00:33:11.130Z,0
2017-06-15T00:33:37.263Z,0
2017-06-15T00:34:03.428Z,0
2017-06-15T00:34:29.576Z,0
2017-06-15T00:34:55.671Z,0
2017-06-15T00:35:21.777Z,0
2017-06-15T00:35:47.906Z,0
2017-06-15T00:36:13.997Z,0
2017-06-15T00:36:40.102Z,0
2017-06-15T00:37:06.235Z,0
2017-06-15T00:37:32.323Z,0
2017-06-15T00:37:58.422Z,0
2017-06-15T00:38:24.529Z,0
2017-06-15T00:38:50.646Z,0
2017-06-15T00:39:16.767Z,0
2017-06-15T00:39:42.878Z,0
2017-06-15T00:40:08.972Z,0
2017-06-15T00:40:35.080Z,0
2017-06-15T00:41:01.169Z,0
2017-06-15T00:41:27.273Z,0
2017-06-15T00:41:53.378Z,0
2017-06-15T00:42:19.495Z,0
2017-06-15T00:42:45.594Z,0
2017-06-15T00:43:11.699Z,0
2017-06-15T00:43:37.793Z,0
2017-06-15T00:44:03.885Z,0
2017-06-15T00:44:30.024Z,0
2017-06-15T00:44:56.121Z,0
2017-06-15T00:45:22.240Z,0
2017-06-15T00:45:48.347Z,0
2017-06-15T00:46:14.443Z,0
2017-06-15T00:46:40.548Z,0
2017-06-15T00:47:06.639Z,0
2017-06-15T00:47:32.779Z,0
2017-06-15T00:47:58.889Z,0
2017-06-15T00:48:24.986Z,0
2017-06-15T00:48:51.127Z,0
2017-06-15T00:49:17.231Z,0
2017-06-15T00:49:43.358Z,0
2017-06-15T00:50:09.475Z,0
2017-06-15T00:50:35.607Z,0
2017-06-15T00:51:01.766Z,0
2017-06-15T00:51:27.853Z,0
2017-06-15T00:51:53.952Z,0
2017-06-15T00:52:20.087Z,0
2017-06-15T00:52:46.178Z,0
2017-06-15T00:53:12.301Z,0
2017-06-15T00:53:38.437Z,0
2017-06-15T00:54:04.531Z,0
2017-06-15T00:54:30.621Z,0
2017-06-15T00:54:56.761Z,0
2017-06-15T00:55:22.857Z,0
2017-06-15T00:55:48.972Z,0
2017-06-15T00:56:15.079Z,0
2017-06-15T00:56:41.208Z,0
2017-06-15T00:57:07.358Z,0
2017-06-15T00:57:33.452Z,0
2017-06-15T00:57:59.570Z,0
2017-06-15T00:58:25.678Z,0
2017-06-15T00:58:51.771Z,0
2017-06-15T00:59:17.911Z,0
2017-06-15T00:59:44.018Z,0
2017-06-15T01:00:10.147Z,0
2017-06-15T01:00:36.236Z,0
2017-06-15T01:01:02.338Z,0
2017-06-15T01:01:28.472Z,0
2017-06-15T01:01:54.585Z,0
2017-06-15T01:02:20.713Z,0
2017-06-15T01:02:46.809Z,0
2017-06-15T01:03:12.942Z,0
2017-06-15T01:03:39.067Z,0
2017-06-15T01:04:05.163Z,0
2017-06-15T01:04:31.286Z,0
2017-06-15T01:04:57.421Z,0
2017-06-15T01:05:23.509Z,0
2017-06-15T01:05:49.609Z,0
2017-06-15T01:06:15.795Z,0
2017-06-15T01:06:41.885Z,0
2017-06-15T01:07:08.006Z,0
2017-06-15T01:07:34.112Z,0
2017-06-15T01:08:00.230Z,0
2017-06-15T01:08:26.336Z,0
2017-06-15T01:08:52.448Z,0
2017-06-15T01:09:18.570Z,0
2017-06-15T01:09:44.704Z,0
2017-06-15T01:10:10.845Z,0
2017-06-15T01:10:36.991Z,0
2017-06-15T01:11:03.097Z,0
2017-06-15T01:11:29.188Z,0
2017-06-15T01:11:55.278Z,0
2017-06-15T01:12:21.388Z,0
2017-06-15T01:12:47.485Z,0
2017-06-15T01:13:13.576Z,0
2017-06-15T01:13:39.684Z,0
2017-06-15T01:14:05.776Z,0
2017-06-15T01:14:31.882Z,0
2017-06-15T01:14:57.978Z,0
2017-06-15T01:15:24.092Z,0
2017-06-15T01:15:50.201Z,0
2017-06-15T01:16:16.327Z,0
2017-06-15T01:16:42.419Z,0
2017-06-15T01:17:08.555Z,0
2017-06-15T01:17:34.653Z,0
2017-06-15T01:18:00.746Z,0
2017-06-15T01:18:26.876Z,0
2017-06-15T01:18:53.007Z,0
2017-06-15T01:19:19.126Z,0
2017-06-15T01:19:45.224Z,0
2017-06-15T01:20:11.315Z,0
2017-06-15T01:20:37.422Z,0
2017-06-15T01:21:03.522Z,0
2017-06-15T01:21:29.613Z,0
2017-06-15T01:21:55.716Z,0
2017-06-15T01:22:21.851Z,0
2017-06-15T01:22:47.941Z,0
2017-06-15T01:23:14.115Z,0
2017-06-15T01:23:40.220Z,0
2017-06-15T01:24:06.313Z,0
2017-06-15T01:24:32.411Z,0
2017-06-15T01:24:58.533Z,0
2017-06-15T01:25:24.635Z,0
2017-06-15T01:25:50.741Z,0
2017-06-15T01:26:16.830Z,0
2017-06-15T01:26:42.953Z,0
2017-06-15T01:27:09.058Z,0
2017-06-15T01:27:35.148Z,0
2017-06-15T01:28:01.246Z,0
2017-06-15T01:28:27.357Z,0
2017-06-15T01:28:53.470Z,0
2017-06-15T01:29:19.561Z,0
2017-06-15T01:29:45.669Z,0
2017-06-15T01:30:11.795Z,0
2017-06-15T01:30:37.950Z,0
2017-06-15T01:31:04.041Z,0
2017-06-15T01:31:30.138Z,0
2017-06-15T01:31:56.244Z,0
2017-06-15T01:32:22.394Z,0
2017-06-15T01:32:48.485Z,0
2017-06-15T01:33:14.595Z,0
2017-06-15T01:33:40.691Z,0
2017-06-15T01:34:06.785Z,0
2017-06-15T01:34:32.916Z,0
2017-06-15T01:34:59.043Z,0
2017-06-15T01:35:25.135Z,0
2017-06-15T01:35:51.239Z,0
2017-06-15T01:36:17.345Z,0
2017-06-15T01:36:43.434Z,0
2017-06-15T01:37:09.557Z,0
2017-06-15T01:37:35.663Z,0
2017-06-15T01:38:01.753Z,0
2017-06-15T01:38:27.851Z,0
2017-06-15T01:38:53.985Z,0
2017-06-15T01:39:20.079Z,0
2017-06-15T01:39:46.193Z,0
2017-06-15T01:40:12.330Z,0
2017-06-15T01:40:38.426Z,0
2017-06-15T01:41:04.518Z,0
2017-06-15T01:41:30.647Z,0
2017-06-15T01:41:56.742Z,0
2017-06-15T01:42:22.848Z,0
2017-06-15T01:42:48.970Z,0
2017-06-15T01:43:15.086Z,0
2017-06-15T01:43:41.195Z,0
2017-06-15T01:44:07.291Z,0
2017-06-15T01:44:33.405Z,0
2017-06-15T01:44:59.513Z,0
2017-06-15T01:45:25.613Z,0
2017-06-15T01:45:51.727Z,0
2017-06-15T01:46:17.855Z,0
2017-06-15T01:46:43.962Z,0
2017-06-15T01:47:10.057Z,0
2017-06-15T01:47:36.189Z,0
2017-06-15T01:48:02.246Z,0
2017-06-15T01:48:28.353Z,0
2017-06-15T01:48:54.482Z,0
2017-06-15T01:49:20.571Z,0
2017-06-15T01:49:46.699Z,0
2017-06-15T01:50:12.807Z,0
2017-06-15T01:50:38.946Z,0
2017-06-15T01:51:05.047Z,0
2017-06-15T01:51:31.151Z,0
2017-06-15T01:51:57.241Z,0
2017-06-15T01:52:23.364Z,0
2017-06-15T01:52:49.458Z,0
2017-06-15T01:53:15.561Z,0
2017-06-15T01:53:41.669Z,0
2017-06-15T01:54:07.757Z,0
2017-06-15T01:54:33.883Z,0
2017-06-15T01:54:59.990Z,0
2017-06-15T01:55:26.110Z,0
2017-06-15T01:55:52.210Z,0
2017-06-15T01:56:18.344Z,0
2017-06-15T01:56:44.438Z,0
2017-06-15T01:57:10.531Z,0
2017-06-15T01:57:36.641Z,0
2017-06-15T01:58:02.767Z,0
2017-06-15T01:58:28.858Z,0
2017-06-15T01:58:54.989Z,0
2017-06-15T01:59:21.130Z,0
2017-06-15T01:59:47.221Z,0
2017-06-15T02:00:13.348Z,0
2017-06-15T02:00:39.461Z,0
2017-06-15T02:01:05.573Z,0
2017-06-15T02:01:31.671Z,0
2017-06-15T02:01:57.805Z,0
2017-06-15T02:02:23.898Z,0
2017-06-15T02:02:49.994Z,0
2017-06-15T02:03:16.099Z,0
2017-06-15T02:03:42.193Z,0
2017-06-15T02:04:08.350Z,0
2017-06-15T02:04:34.436Z,0
2017-06-15T02:05:00.537Z,0
2017-06-15T02:05:26.672Z,0
2017-06-15T02:05:52.787Z,0
2017-06-15T02:06:18.883Z,0
2017-06-15T02:06:45.017Z,0
2017-06-15T02:07:11.111Z,0
2017-06-15T02:07:37.203Z,0
2017-06-15T02:08:03.337Z,0
2017-06-15T02:08:29.434Z,0
2017-06-15T02:08:55.526Z,0
2017-06-15T02:09:21.632Z,0
2017-06-15T02:09:47.726Z,0
2017-06-15T02:10:13.833Z,0
2017-06-15T02:10:39.926Z,0
2017-06-15T02:11:06.018Z,0
2017-06-15T02:11:32.156Z,0
2017-06-15T02:11:58.278Z,0
2017-06-15T02:12:24.370Z,0
2017-06-15T02:12:50.500Z,0
2017-06-15T02:13:16.630Z,0
2017-06-15T02:13:42.722Z,0
2017-06-15T02:14:08.849Z,0
2017-06-15T02:14:34.982Z,0
2017-06-15T02:15:01.077Z,0
2017-06-15T02:15:27.201Z,0
2017-06-15T02:15:53.318Z,0
2017-06-15T02:16:19.453Z,0
2017-06-15T02:16:45.577Z,0
2017-06-15T02:17:12.069Z,0
2017-06-15T02:17:38.173Z,0
2017-06-15T02:18:04.277Z,0
2017-06-15T02:18:30.366Z,0
2017-06-15T02:18:56.465Z,0
2017-06-15T02:19:22.572Z,0
2017-06-15T02:19:48.685Z,0
2017-06-15T02:20:14.806Z,4
2017-06-15T02:20:40.941Z,4
2017-06-15T02:21:07.060Z,4
2017-06-15T02:21:33.150Z,4
2017-06-15T02:21:59.310Z,4
2017-06-15T02:22:25.432Z,4
2017-06-15T02:22:51.570Z,4
2017-06-15T02:23:17.725Z,0
2017-06-15T02:23:43.826Z,0
2017-06-15T02:24:09.916Z,0
2017-06-15T02:24:36.042Z,0
2017-06-15T02:25:02.179Z,0
2017-06-15T02:25:28.265Z,4
2017-06-15T02:25:54.363Z,4
2017-06-15T02:26:20.458Z,4
2017-06-15T02:26:46.564Z,4
2017-06-15T02:27:12.663Z,4
2017-06-15T02:27:38.752Z,4
2017-06-15T02:28:04.855Z,4
2017-06-15T02:28:30.961Z,4
2017-06-15T02:28:57.048Z,4
2017-06-15T02:29:23.150Z,4
2017-06-15T02:29:49.319Z,4
2017-06-15T02:30:15.411Z,4
2017-06-15T02:30:41.531Z,4
2017-06-15T02:31:07.638Z,8
2017-06-15T02:31:33.732Z,8
2017-06-15T02:31:59.872Z,4
2017-06-15T02:32:25.959Z,4
2017-06-15T02:32:52.082Z,8
2017-06-15T02:33:18.188Z,8
2017-06-15T02:33:44.278Z,8
2017-06-15T02:34:10.398Z,8
2017-06-15T02:34:36.532Z,8
2017-06-15T02:35:02.626Z,8
2017-06-15T02:35:28.738Z,12
2017-06-15T02:35:54.847Z,8
2017-06-15T02:36:20.970Z,12
2017-06-15T02:36:47.062Z,8
2017-06-15T02:37:13.194Z,12
2017-06-15T02:37:39.288Z,12
2017-06-15T02:38:05.394Z,12
2017-06-15T02:38:31.486Z,16
2017-06-15T02:38:57.624Z,16
2017-06-15T02:39:23.762Z,12
2017-06-15T02:39:49.860Z,16
2017-06-15T02:40:15.977Z,16
2017-06-15T02:40:42.082Z,16
2017-06-15T02:41:08.208Z,20
2017-06-15T02:41:34.298Z,20
2017-06-15T02:42:00.400Z,20
2017-06-15T02:42:26.505Z,24
2017-06-15T02:42:52.598Z,24
2017-06-15T02:43:18.695Z,24
2017-06-15T02:43:44.834Z,24
2017-06-15T02:44:10.965Z,24
2017-06-15T02:44:37.064Z,28
2017-06-15T02:45:03.205Z,28
2017-06-15T02:45:29.308Z,28
2017-06-15T02:45:55.440Z,32
2017-06-15T02:46:21.527Z,32
2017-06-15T02:46:47.626Z,36
2017-06-15T02:47:13.732Z,36
2017-06-15T02:47:39.822Z,40
2017-06-15T02:48:05.919Z,40
2017-06-15T02:48:32.045Z,40
2017-06-15T02:48:58.148Z,44
2017-06-15T02:49:24.254Z,44
2017-06-15T02:49:50.340Z,52
2017-06-15T02:50:16.441Z,52
2017-06-15T02:50:42.545Z,56
2017-06-15T02:51:08.635Z,56
2017-06-15T02:51:34.756Z,60
2017-06-15T02:52:00.889Z,64
2017-06-15T02:52:26.984Z,64
2017-06-15T02:52:53.074Z,68
2017-06-15T02:53:19.184Z,76
2017-06-15T02:53:45.281Z,80
2017-06-15T02:54:11.383Z,80
2017-06-15T02:54:37.473Z,84
2017-06-15T02:55:03.571Z,92
2017-06-15T02:55:29.678Z,92
2017-06-15T02:55:55.769Z,96
2017-06-15T02:56:21.859Z,100
2017-06-15T02:56:47.968Z,104
2017-06-15T02:57:14.116Z,112
2017-06-15T02:57:40.206Z,116
2017-06-15T02:58:06.338Z,120
2017-06-15T02:58:32.494Z,128
2017-06-15T02:58:58.586Z,132
2017-06-15T02:59:24.685Z,136
2017-06-15T02:59:50.797Z,140
2017-06-15T03:00:16.906Z,144
2017-06-15T03:00:43.003Z,148
2017-06-15T03:01:09.092Z,152
2017-06-15T03:01:35.197Z,156
2017-06-15T03:02:01.326Z,160
2017-06-15T03:02:27.415Z,164
2017-06-15T03:02:53.566Z,168
2017-06-15T03:03:19.670Z,172
2017-06-15T03:03:45.758Z,180
2017-06-15T03:04:11.882Z,184
2017-06-15T03:04:38.017Z,188
2017-06-15T03:05:04.106Z,196
2017-06-15T03:05:30.201Z,200
2017-06-15T03:05:56.308Z,208
2017-06-15T03:06:22.402Z,212
2017-06-15T03:06:48.495Z,220
2017-06-15T03:07:14.631Z,228
2017-06-15T03:07:40.726Z,232
2017-06-15T03:08:06.866Z,240
2017-06-15T03:08:32.973Z,248
2017-06-15T03:08:59.100Z,252
2017-06-15T03:09:25.215Z,260
2017-06-15T03:09:51.319Z,272
2017-06-15T03:10:17.450Z,280
2017-06-15T03:10:43.545Z,292
2017-06-15T03:11:09.640Z,300
2017-06-15T03:11:35.755Z,312
2017-06-15T03:12:01.860Z,320
2017-06-15T03:12:27.961Z,332
2017-06-15T03:12:54.079Z,348
2017-06-15T03:13:20.181Z,360
2017-06-15T03:13:46.288Z,368
2017-06-15T03:14:12.375Z,384
2017-06-15T03:14:38.524Z,400
2017-06-15T03:15:04.631Z,412
2017-06-15T03:15:30.722Z,424
2017-06-15T03:15:56.842Z,440
2017-06-15T03:16:22.938Z,456
2017-06-15T03:16:49.039Z,472
2017-06-15T03:17:15.144Z,488
2017-06-15T03:17:41.254Z,504
2017-06-15T03:18:07.678Z,524
2017-06-15T03:18:33.838Z,540
2017-06-15T03:18:59.952Z,556
2017-06-15T03:19:26.048Z,576
2017-06-15T03:19:52.154Z,592
2017-06-15T03:20:18.247Z,612
2017-06-15T03:20:44.338Z,632
2017-06-15T03:21:10.476Z,648
2017-06-15T03:21:36.574Z,664
2017-06-15T03:22:02.677Z,680
2017-06-15T03:22:28.766Z,700
2017-06-15T03:22:54.862Z,716
2017-06-15T03:23:20.969Z,728
2017-06-15T03:23:47.061Z,748
2017-06-15T03:24:13.151Z,760
2017-06-15T03:24:39.261Z,780
2017-06-15T03:25:05.358Z,792
2017-06-15T03:25:31.448Z,812
2017-06-15T03:25:57.577Z,824
2017-06-15T03:26:23.677Z,840
2017-06-15T03:26:49.769Z,852
2017-06-15T03:27:15.870Z,872
2017-06-15T03:27:41.959Z,888
2017-06-15T03:28:08.067Z,904
2017-06-15T03:28:34.193Z,920
2017-06-15T03:29:00.309Z,936
2017-06-15T03:29:26.414Z,956
2017-06-15T03:29:52.516Z,972
2017-06-15T03:30:18.631Z,988
2017-06-15T03:30:44.734Z,1008
2017-06-15T03:31:10.839Z,1028
2017-06-15T03:31:36.926Z,1040
2017-06-15T03:32:03.026Z,1064
2017-06-15T03:32:29.132Z,1088
2017-06-15T03:32:55.222Z,1108
2017-06-15T03:33:21.325Z,1128
2017-06-15T03:33:47.416Z,1156
2017-06-15T03:34:13.519Z,1180
2017-06-15T03:34:39.651Z,1208
2017-06-15T03:35:05.740Z,1236
2017-06-15T03:35:31.841Z,1264
2017-06-15T03:35:57.946Z,1296
2017-06-15T03:36:24.063Z,1320
2017-06-15T03:36:50.156Z,1356
2017-06-15T03:37:16.262Z,1384
2017-06-15T03:37:42.356Z,1416
2017-06-15T03:38:08.472Z,1448
2017-06-15T03:38:34.601Z,1480
2017-06-15T03:39:00.701Z,1512
2017-06-15T03:39:26.805Z,1548
2017-06-15T03:39:52.895Z,1580
2017-06-15T03:40:18.993Z,1616
2017-06-15T03:40:45.127Z,1652
2017-06-15T03:41:11.223Z,1692
2017-06-15T03:41:37.313Z,1736
2017-06-15T03:42:03.452Z,1780
2017-06-15T03:42:29.548Z,1828
2017-06-15T03:42:55.639Z,1880
2017-06-15T03:43:21.745Z,1932
2017-06-15T03:43:47.844Z,1976
2017-06-15T03:44:13.967Z,2020
2017-06-15T03:44:40.088Z,2056
2017-06-15T03:45:06.178Z,2088
2017-06-15T03:45:32.288Z,2116
2017-06-15T03:45:58.383Z,2144
2017-06-15T03:46:24.476Z,2168
2017-06-15T03:46:50.581Z,2196
2017-06-15T03:47:16.682Z,2224
2017-06-15T03:47:42.797Z,2260
2017-06-15T03:48:08.929Z,2296
2017-06-15T03:48:35.034Z,2336
2017-06-15T03:49:01.148Z,2376
2017-06-15T03:49:27.246Z,2416
2017-06-15T03:49:53.406Z,2456
2017-06-15T03:50:19.501Z,2492
2017-06-15T03:50:45.598Z,2532
2017-06-15T03:51:11.734Z,2564
2017-06-15T03:51:37.796Z,2596
2017-06-15T03:52:03.929Z,2624
2017-06-15T03:52:30.029Z,2656
2017-06-15T03:52:56.123Z,2688
2017-06-15T03:53:22.264Z,2720
2017-06-15T03:53:48.369Z,2756
2017-06-15T03:54:14.471Z,2788
2017-06-15T03:54:40.561Z,2824
2017-06-15T03:55:06.662Z,2860
2017-06-15T03:55:32.808Z,2892
2017-06-15T03:55:58.918Z,2924
2017-06-15T03:56:25.015Z,2956
2017-06-15T03:56:51.106Z,2984
2017-06-15T03:57:17.211Z,3008
2017-06-15T03:57:43.314Z,3036
2017-06-15T03:58:09.403Z,3064
2017-06-15T03:58:35.512Z,3088
2017-06-15T03:59:01.618Z,3120
2017-06-15T03:59:27.728Z,3152
2017-06-15T03:59:53.878Z,3184
2017-06-15T04:00:20.038Z,3228
2017-06-15T04:00:46.184Z,3260
2017-06-15T04:01:12.285Z,3300
2017-06-15T04:01:38.379Z,3340
2017-06-15T04:02:04.508Z,3372
2017-06-15T04:02:30.613Z,3412
2017-06-15T04:02:56.726Z,3436
2017-06-15T04:03:22.827Z,3460
2017-06-15T04:03:48.934Z,3480
2017-06-15T04:04:15.051Z,3500
2017-06-15T04:04:41.146Z,3520
2017-06-15T04:05:07.305Z,3548
2017-06-15T04:05:33.398Z,3576
2017-06-15T04:05:59.488Z,3608
2017-06-15T04:06:25.593Z,3648
2017-06-15T04:06:51.693Z,3688
2017-06-15T04:07:17.825Z,3724
2017-06-15T04:07:43.915Z,3764
2017-06-15T04:08:10.039Z,3804
2017-06-15T04:08:36.145Z,3848
2017-06-15T04:09:02.238Z,3884
2017-06-15T04:09:28.328Z,3920
2017-06-15T04:09:54.439Z,3960
2017-06-15T04:10:20.535Z,3992
2017-06-15T04:10:46.625Z,4028
2017-06-15T04:11:12.756Z,4056
2017-06-15T04:11:38.857Z,4084
2017-06-15T04:12:04.956Z,4104
2017-06-15T04:12:31.050Z,4124
2017-06-15T04:12:57.165Z,4136
2017-06-15T04:13:23.274Z,4140
2017-06-15T04:13:49.371Z,4140
2017-06-15T04:14:15.460Z,4136
2017-06-15T04:14:41.565Z,4124
2017-06-15T04:15:07.694Z,4120
2017-06-15T04:15:33.785Z,4112
2017-06-15T04:15:59.888Z,4116
2017-06-15T04:16:26.051Z,4124
2017-06-15T04:16:52.138Z,4132
2017-06-15T04:17:18.237Z,4140
2017-06-15T04:17:44.358Z,4152
2017-06-15T04:18:10.464Z,4168
2017-06-15T04:18:36.619Z,4188
2017-06-15T04:19:02.734Z,4220
2017-06-15T04:19:28.859Z,4248
2017-06-15T04:19:54.966Z,4276
2017-06-15T04:20:21.054Z,4304
2017-06-15T04:20:47.156Z,4332
2017-06-15T04:21:13.261Z,4360
2017-06-15T04:21:39.353Z,4384
2017-06-15T04:22:05.450Z,4404
2017-06-15T04:22:31.557Z,4428
2017-06-15T04:22:57.647Z,4440
2017-06-15T04:23:23.754Z,4460
2017-06-15T04:23:49.867Z,4484
2017-06-15T04:24:15.993Z,4512
2017-06-15T04:24:42.097Z,4536
2017-06-15T04:25:08.214Z,4552
2017-06-15T04:25:34.310Z,4572
2017-06-15T04:26:00.415Z,4592
2017-06-15T04:26:26.507Z,4620
2017-06-15T04:26:52.597Z,4648
2017-06-15T04:27:18.708Z,4680
2017-06-15T04:27:44.833Z,4700
2017-06-15T04:28:10.947Z,4716
2017-06-15T04:28:37.064Z,4748
2017-06-15T04:29:03.184Z,4816
2017-06-15T04:29:29.290Z,4900
2017-06-15T04:29:55.399Z,4968
2017-06-15T04:30:21.493Z,5032
2017-06-15T04:30:47.655Z,5060
2017-06-15T04:31:13.750Z,5068
2017-06-15T04:31:39.868Z,5120
2017-06-15T04:32:05.996Z,5192
2017-06-15T04:32:32.097Z,5276
2017-06-15T04:32:58.187Z,5376
2017-06-15T04:33:24.314Z,5480
2017-06-15T04:33:50.420Z,5592
2017-06-15T04:34:16.507Z,5692
2017-06-15T04:34:42.606Z,5796
2017-06-15T04:35:08.740Z,5888
2017-06-15T04:35:34.830Z,5956
2017-06-15T04:36:00.957Z,6052
2017-06-15T04:36:27.117Z,6200
2017-06-15T04:36:53.239Z,6384
2017-06-15T04:37:19.329Z,6600
2017-06-15T04:37:45.437Z,6860
2017-06-15T04:38:11.564Z,7364
2017-06-15T04:38:37.656Z,8292
2017-06-15T04:39:03.760Z,10020
2017-06-15T04:39:29.862Z,12640
2017-06-15T04:39:55.961Z,15360
2017-06-15T04:40:22.057Z,17376
2017-06-15T04:40:48.148Z,18272
2017-06-15T04:41:14.315Z,18592
2017-06-15T04:41:40.378Z,18880
2017-06-15T04:42:06.470Z,19264
2017-06-15T04:42:32.579Z,20288
2017-06-15T04:42:58.678Z,21472
2017-06-15T04:43:24.792Z,22624
2017-06-15T04:43:50.895Z,22720
2017-06-15T04:44:17.030Z,22560
2017-06-15T04:44:43.119Z,22752
2017-06-15T04:45:09.245Z,23424
2017-06-15T04:45:35.340Z,22880
2017-06-15T04:46:01.475Z,22016
2017-06-15T04:46:27.577Z,22336
2017-06-15T04:46:53.669Z,22304
2017-06-15T04:47:19.782Z,22336
2017-06-15T04:47:45.917Z,22624
2017-06-15T04:48:12.029Z,22688
2017-06-15T04:48:38.131Z,24192
2017-06-15T04:49:04.239Z,25632
2017-06-15T04:49:30.334Z,25440
2017-06-15T04:49:56.431Z,24256
2017-06-15T04:50:22.538Z,25024
2017-06-15T04:50:48.633Z,26048
2017-06-15T04:51:14.739Z,27840
2017-06-15T04:51:40.825Z,28672
2017-06-15T04:52:06.951Z,29280
2017-06-15T04:52:33.086Z,29408
2017-06-15T04:52:59.179Z,29312
2017-06-15T04:53:25.278Z,28960
2017-06-15T04:53:51.386Z,28192
2017-06-15T04:54:17.481Z,28704
2017-06-15T04:54:43.572Z,28992
2017-06-15T04:55:09.683Z,28992
2017-06-15T04:55:35.781Z,29344
2017-06-15T04:56:01.873Z,30496
2017-06-15T04:56:27.983Z,30880
2017-06-15T04:56:54.102Z,30336
2017-06-15T04:57:20.211Z,29920
2017-06-15T04:57:46.308Z,28896
2017-06-15T04:58:12.400Z,27296
2017-06-15T04:58:38.538Z,25376
2017-06-15T04:59:04.637Z,23808
2017-06-15T04:59:30.731Z,22400
2017-06-15T04:59:56.839Z,21920
2017-06-15T05:00:22.941Z,24448
2017-06-15T05:00:49.057Z,26560
2017-06-15T05:01:15.161Z,29088
2017-06-15T05:01:41.271Z,29984
2017-06-15T05:02:07.369Z,27552
2017-06-15T05:02:33.465Z,26016
2017-06-15T05:02:59.558Z,26048
2017-06-15T05:03:25.666Z,25856
2017-06-15T05:03:51.768Z,25856
2017-06-15T05:04:17.884Z,27168
2017-06-15T05:04:43.990Z,28224
2017-06-15T05:05:10.099Z,28864
2017-06-15T05:05:36.193Z,30528
2017-06-15T05:06:02.292Z,32096
2017-06-15T05:06:28.398Z,32896
2017-06-15T05:06:54.492Z,34048
2017-06-15T05:07:20.592Z,34112
2017-06-15T05:07:46.718Z,34112
2017-06-15T05:08:12.822Z,34432
2017-06-15T05:08:38.960Z,34336
2017-06-15T05:09:05.150Z,33664
2017-06-15T05:09:31.278Z,32288
2017-06-15T05:09:57.384Z,32544
2017-06-15T05:10:23.478Z,32288
2017-06-15T05:10:49.577Z,31296
2017-06-15T05:11:15.713Z,29856
2017-06-15T05:11:41.810Z,27328
2017-06-15T05:12:07.902Z,23456
2017-06-15T05:12:34.037Z,19296
2017-06-15T05:13:00.164Z,15488
2017-06-15T05:13:26.272Z,12552
2017-06-15T05:13:52.364Z,11376
2017-06-15T05:14:18.462Z,11220
2017-06-15T05:14:44.570Z,11172
2017-06-15T05:15:10.694Z,11172
2017-06-15T05:15:36.786Z,11128
2017-06-15T05:16:02.898Z,11124
2017-06-15T05:16:28.997Z,11120
2017-06-15T05:16:55.117Z,11132
2017-06-15T05:17:21.226Z,11124
2017-06-15T05:17:47.354Z,11112
2017-06-15T05:18:13.470Z,11108
2017-06-15T05:18:39.575Z,11096
2017-06-15T05:19:05.711Z,11084
2017-06-15T05:19:31.802Z,11080
2017-06-15T05:19:57.929Z,11076
2017-06-15T05:20:24.037Z,11060
2017-06-15T05:20:50.131Z,11032
2017-06-15T05:21:16.230Z,11016
2017-06-15T05:21:42.338Z,11008
2017-06-15T05:22:08.460Z,11000
2017-06-15T05:22:34.555Z,10972
2017-06-15T05:23:00.693Z,10996
2017-06-15T05:23:26.791Z,11016
2017-06-15T05:23:52.908Z,10968
2017-06-15T05:24:19.039Z,10908
2017-06-15T05:24:45.158Z,10848
2017-06-15T05:25:11.267Z,10724
2017-06-15T05:25:37.363Z,10524
2017-06-15T05:26:03.480Z,10220
2017-06-15T05:26:29.591Z,9856
2017-06-15T05:26:55.716Z,9804
2017-06-15T05:27:21.833Z,9660
2017-06-15T05:27:47.940Z,9900
2017-06-15T05:28:14.071Z,10012
2017-06-15T05:28:40.165Z,9916
2017-06-15T05:29:06.270Z,9884
2017-06-15T05:29:32.377Z,10024
2017-06-15T05:29:58.473Z,10140
2017-06-15T05:30:24.572Z,10288
2017-06-15T05:30:50.664Z,10364
2017-06-15T05:31:16.774Z,10160
2017-06-15T05:31:42.875Z,10028
2017-06-15T05:32:08.967Z,10104
2017-06-15T05:32:35.071Z,10288
2017-06-15T05:33:01.179Z,10616
2017-06-15T05:33:27.271Z,10684
2017-06-15T05:33:53.398Z,10692
2017-06-15T05:34:19.534Z,10716
2017-06-15T05:34:45.651Z,10740
2017-06-15T05:35:11.750Z,10784
2017-06-15T05:35:37.847Z,10836
2017-06-15T05:36:03.978Z,10900
2017-06-15T05:36:30.087Z,10988
2017-06-15T05:36:56.174Z,11072
2017-06-15T05:37:22.277Z,11152
2017-06-15T05:37:48.385Z,11236
2017-06-15T05:38:14.478Z,11344
2017-06-15T05:38:40.578Z,11452
2017-06-15T05:39:07.035Z,11540
2017-06-15T05:39:33.133Z,11564
2017-06-15T05:39:59.250Z,11648
2017-06-15T05:40:25.388Z,11708
2017-06-15T05:40:51.512Z,11780
2017-06-15T05:41:17.616Z,11844
2017-06-15T05:41:43.757Z,11912
2017-06-15T05:42:09.862Z,11968
2017-06-15T05:42:35.981Z,12024
2017-06-15T05:43:02.395Z,12068
2017-06-15T05:43:28.482Z,12100
2017-06-15T05:43:54.606Z,12116
2017-06-15T05:44:20.691Z,12120
2017-06-15T05:44:46.784Z,12112
2017-06-15T05:45:12.918Z,12088
2017-06-15T05:45:39.020Z,12052
2017-06-15T05:46:05.112Z,11980
2017-06-15T05:46:31.217Z,11880
2017-06-15T05:46:57.309Z,11804
2017-06-15T05:47:23.420Z,11748
2017-06-15T05:47:49.521Z,11624
2017-06-15T05:48:15.612Z,11536
2017-06-15T05:48:41.745Z,11520
2017-06-15T05:49:07.872Z,11456
2017-06-15T05:49:33.963Z,11348
2017-06-15T05:50:00.068Z,11240
2017-06-15T05:50:26.174Z,11116
2017-06-15T05:50:52.262Z,10964
2017-06-15T05:51:18.389Z,10832
2017-06-15T05:51:44.497Z,10724
2017-06-15T05:52:10.588Z,10608
2017-06-15T05:52:36.735Z,10504
2017-06-15T05:53:02.904Z,10452
2017-06-15T05:53:29.058Z,10444
2017-06-15T05:53:55.483Z,10432
2017-06-15T05:54:21.608Z,10428
2017-06-15T05:54:47.716Z,10384
2017-06-15T05:55:13.915Z,10372
2017-06-15T05:55:40.004Z,10252
2017-06-15T05:56:06.121Z,10160
2017-06-15T05:56:32.315Z,10180
2017-06-15T05:56:58.549Z,10264
2017-06-15T05:57:24.742Z,10392
2017-06-15T05:57:51.055Z,10604
2017-06-15T05:58:17.194Z,10780
2017-06-15T05:58:43.351Z,10972
2017-06-15T05:59:09.445Z,11128
2017-06-15T05:59:35.573Z,11272
2017-06-15T06:00:01.687Z,11376
2017-06-15T06:00:27.820Z,11560
2017-06-15T06:00:53.913Z,11648
2017-06-15T06:01:20.097Z,11732
2017-06-15T06:01:46.301Z,11864
2017-06-15T06:02:12.536Z,12112
2017-06-15T06:02:38.694Z,12448